Time;durP1;ratioP1;P1;durP2;ratioP2;P2;SDS_P1;SDS_P2;PMS_P1;PMS_P2;Temp;Humidity;BMP_temperature;BMP_pressure;BME280_temperature;BME280_humidity;BME280_pressure;Samples;Min_cycle;Max_cycle;Signal;HPM_P1;HPM_P2
2022/04/16 00:01:43;;;;;;;22.97;15.07;;;;;;;;;;5017628;28;20285;-40
2022/04/16 00:04:10;;;;;;;17.33;12.07;;;;;;;;;;5018528;28;20578;-40
2022/04/16 00:06:38;;;;;;;13.13;9.68;;;;;;;;;;5017827;28;20218;-40
2022/04/16 00:09:05;;;;;;;11.40;8.00;;;;;;;;;;5017859;28;20241;-41
2022/04/16 00:11:33;;;;;;;8.80;7.03;;;;;;;;;;5017642;28;20296;-41
2022/04/16 00:14:00;;;;;;;8.98;6.57;;;;;;;;;;5017637;28;20205;-42
2022/04/16 00:16:27;;;;;;;10.60;6.63;;;;;;;;;;5017847;28;20293;-41
2022/04/16 00:18:56;;;;;;;12.93;8.32;;;;;;;;;;5018257;28;20252;-41
2022/04/16 00:21:24;;;;;;;13.20;9.30;;;;;;;;;;5017405;28;20211;-41
2022/04/16 00:23:53;;;;;;;12.48;9.30;;;;;;;;;;5017438;28;20512;-41
2022/04/16 00:26:21;;;;;;;12.52;10.05;;;;;;;;;;5017384;28;20292;-40
2022/04/16 00:28:50;;;;;;;14.50;11.73;;;;;;;;;;5017346;28;20256;-41
2022/04/16 00:31:17;;;;;;;14.97;11.37;;;;;;;;;;5017443;28;20213;-41
2022/04/16 00:33:46;;;;;;;14.70;10.82;;;;;;;;;;5017521;28;20260;-40
2022/04/16 00:36:14;;;;;;;18.33;12.00;;;;;;;;;;5017381;28;20201;-41
2022/04/16 00:38:42;;;;;;;21.97;14.37;;;;;;;;;;5017532;28;20284;-40
2022/04/16 00:41:12;;;;;;;22.00;13.00;;;;;;;;;;5017269;28;20320;-40
2022/04/16 00:43:39;;;;;;;20.50;14.35;;;;;;;;;;5017195;28;20201;-41
2022/04/16 00:46:07;;;;;;;16.00;10.77;;;;;;;;;;5017303;28;20213;-40
2022/04/16 00:48:35;;;;;;;20.50;13.60;;;;;;;;;;5017028;28;20344;-45
2022/04/16 00:51:03;;;;;;;12.90;9.03;;;;;;;;;;5016899;28;20707;-41
2022/04/16 00:53:30;;;;;;;13.73;9.27;;;;;;;;;;5017017;28;20225;-41
2022/04/16 00:55:58;;;;;;;11.43;8.73;;;;;;;;;;5032247;28;20212;-41
2022/04/16 00:58:25;;;;;;;9.57;7.70;;;;;;;;;;5017054;28;20201;-41
2022/04/16 01:00:52;;;;;;;12.70;6.60;;;;;;;;;;5016579;28;20252;-41
2022/04/16 01:03:20;;;;;;;10.83;7.90;;;;;;;;;;5017162;28;20229;-41
2022/04/16 01:05:47;;;;;;;11.03;8.30;;;;;;;;;;5016581;28;20221;-41
2022/04/16 01:08:17;;;;;;;10.17;7.57;;;;;;;;;;5016587;28;20229;-42
2022/04/16 01:10:44;;;;;;;8.57;6.07;;;;;;;;;;5016001;28;20205;-41
2022/04/16 01:13:12;;;;;;;9.33;6.53;;;;;;;;;;5016424;28;20703;-41
2022/04/16 01:15:39;;;;;;;7.77;6.07;;;;;;;;;;5017012;28;20544;-41
2022/04/16 01:18:07;;;;;;;6.90;5.37;;;;;;;;;;5016637;28;20229;-42
2022/04/16 01:20:36;;;;;;;6.50;4.93;;;;;;;;;;5016356;28;20225;-41
2022/04/16 01:23:04;;;;;;;6.80;5.03;;;;;;;;;;5016286;28;20762;-41
2022/04/16 01:25:33;;;;;;;5.37;4.80;;;;;;;;;;5016156;28;20232;-41
2022/04/16 01:28:01;;;;;;;5.37;3.93;;;;;;;;;;5016339;28;20284;-41
2022/04/16 01:30:29;;;;;;;4.10;3.67;;;;;;;;;;5016038;28;20212;-40
2022/04/16 01:32:57;;;;;;;5.53;3.87;;;;;;;;;;5016185;28;20237;-41
2022/04/16 01:35:24;;;;;;;4.67;3.53;;;;;;;;;;5016023;28;20632;-40
2022/04/16 01:37:51;;;;;;;4.70;4.23;;;;;;;;;;5016861;28;20265;-41
2022/04/16 01:40:20;;;;;;;3.93;3.53;;;;;;;;;;5016093;28;20712;-41
2022/04/16 01:42:47;;;;;;;8.17;4.30;;;;;;;;;;5016493;28;20209;-41
2022/04/16 01:45:18;;;;;;;6.10;4.50;;;;;;;;;;5015884;28;20213;-41
2022/04/16 01:47:46;;;;;;;6.23;5.63;;;;;;;;;;5016016;28;20236;-43
2022/04/16 01:50:13;;;;;;;7.90;5.67;;;;;;;;;;5016187;28;20205;-42
2022/04/16 01:52:43;;;;;;;6.80;5.97;;;;;;;;;;5015676;28;20605;-41
2022/04/16 01:55:12;;;;;;;5.87;5.23;;;;;;;;;;5016236;28;20642;-41
2022/04/16 01:57:39;;;;;;;4.87;3.70;;;;;;;;;;5015707;28;20213;-41
2022/04/16 02:00:09;;;;;;;4.40;3.57;;;;;;;;;;5015744;28;20240;-41
2022/04/16 02:02:37;;;;;;;3.77;3.47;;;;;;;;;;5015510;28;20229;-42
2022/04/16 02:05:05;;;;;;;3.17;2.87;;;;;;;;;;5015922;28;20209;-41
2022/04/16 02:07:32;;;;;;;3.97;3.40;;;;;;;;;;5015637;28;20255;-41
2022/04/16 02:10:00;;;;;;;3.50;3.20;;;;;;;;;;5015247;28;20328;-41
2022/04/16 02:12:28;;;;;;;4.53;4.13;;;;;;;;;;5015333;28;20535;-41
2022/04/16 02:14:55;;;;;;;4.80;4.33;;;;;;;;;;5015442;28;20723;-43
2022/04/16 02:17:23;;;;;;;4.87;4.40;;;;;;;;;;5015464;28;20259;-41
2022/04/16 02:19:50;;;;;;;4.40;3.60;;;;;;;;;;5015402;28;20201;-41
2022/04/16 02:22:17;;;;;;;4.47;4.00;;;;;;;;;;5014511;28;20656;-41
2022/04/16 02:24:46;;;;;;;4.20;3.80;;;;;;;;;;5015136;28;20636;-41
2022/04/16 02:27:14;;;;;;;4.07;3.07;;;;;;;;;;5015328;28;20206;-41
2022/04/16 02:29:43;;;;;;;3.97;2.40;;;;;;;;;;5015312;28;20206;-41
2022/04/16 02:32:11;;;;;;;3.17;2.83;;;;;;;;;;5015138;28;20232;-42
2022/04/16 02:34:38;;;;;;;3.33;2.47;;;;;;;;;;5015282;28;20220;-43
2022/04/16 02:37:05;;;;;;;3.60;2.80;;;;;;;;;;5014983;28;20520;-45
2022/04/16 02:39:32;;;;;;;2.80;2.60;;;;;;;;;;5015097;28;20221;-42
2022/04/16 02:41:59;;;;;;;3.27;2.33;;;;;;;;;;5014922;28;20233;-42
2022/04/16 02:47:13;;;;;;;2.73;2.53;;;;;;;;;;5014976;28;20194;-40
2022/04/16 02:49:40;;;;;;;2.77;2.57;;;;;;;;;;5015169;28;20220;-40
2022/04/16 02:52:07;;;;;;;2.20;2.00;;;;;;;;;;5014953;28;20232;-40
2022/04/16 02:54:37;;;;;;;2.87;2.67;;;;;;;;;;5015017;28;20252;-40
2022/04/16 02:57:04;;;;;;;3.30;3.00;;;;;;;;;;5015767;28;20208;-40
2022/04/16 02:59:35;;;;;;;2.47;2.20;;;;;;;;;;5014768;28;20202;-40
2022/04/16 03:02:03;;;;;;;2.47;2.23;;;;;;;;;;5015284;28;20317;-41
2022/04/16 03:04:30;;;;;;;2.33;1.40;;;;;;;;;;5015345;28;20212;-40
2022/04/16 03:06:58;;;;;;;1.83;1.60;;;;;;;;;;5014695;28;20205;-41
2022/04/16 03:09:25;;;;;;;3.33;1.93;;;;;;;;;;5014827;28;20276;-41
2022/04/16 03:11:52;;;;;;;2.47;2.27;;;;;;;;;;5014660;28;20220;-41
2022/04/16 03:19:50;;;;;;;3.83;2.73;;;;;;;;;;5014304;28;20538;-39
2022/04/16 03:22:18;;;;;;;1.83;1.67;;;;;;;;;;5014629;28;20260;-41
2022/04/16 03:24:45;;;;;;;1.97;1.80;;;;;;;;;;5014348;28;20201;-39
2022/04/16 03:27:12;;;;;;;2.27;2.07;;;;;;;;;;5014547;28;20591;-40
2022/04/16 03:29:39;;;;;;;2.93;2.63;;;;;;;;;;5014352;28;20539;-40
2022/04/16 03:32:06;;;;;;;1.80;1.70;;;;;;;;;;5014281;28;20319;-40
2022/04/16 03:34:33;;;;;;;2.00;1.80;;;;;;;;;;5016498;28;20263;-39
2022/04/16 03:37:01;;;;;;;2.70;2.50;;;;;;;;;;5017801;28;20225;-40
2022/04/16 03:39:28;;;;;;;2.13;1.90;;;;;;;;;;5017952;28;20225;-39
2022/04/16 03:41:55;;;;;;;2.93;2.63;;;;;;;;;;5017891;28;20860;-39
2022/04/16 03:44:23;;;;;;;1.90;1.70;;;;;;;;;;5017917;28;20593;-40
2022/04/16 03:46:50;;;;;;;3.27;2.37;;;;;;;;;;5012208;28;20211;-41
2022/04/16 03:49:17;;;;;;;3.13;2.27;;;;;;;;;;5016693;28;20202;-43
2022/04/16 03:51:44;;;;;;;3.13;2.83;;;;;;;;;;5016829;28;20236;-42
2022/04/16 04:00:01;;;;;;;4.80;3.53;;;;;;;;;;5016618;28;20263;-41
2022/04/16 04:02:38;;;;;;;4.83;3.53;;;;;;;;;;5015565;28;20282;-44
2022/04/16 04:05:06;;;;;;;4.90;4.07;;;;;;;;;;5016439;28;20228;-41
2022/04/16 04:07:34;;;;;;;4.43;3.80;;;;;;;;;;5016134;28;20248;-40
2022/04/16 04:10:02;;;;;;;6.37;4.50;;;;;;;;;;5016208;28;20598;-42
2022/04/16 04:12:29;;;;;;;5.10;3.93;;;;;;;;;;5015948;28;20228;-41
2022/04/16 04:14:56;;;;;;;5.10;3.70;;;;;;;;;;5016181;28;20201;-40
2022/04/16 04:17:23;;;;;;;4.70;3.53;;;;;;;;;;5016206;28;20292;-39
2022/04/16 04:19:50;;;;;;;6.23;4.37;;;;;;;;;;5011728;28;20309;-40
2022/04/16 04:22:19;;;;;;;5.50;4.23;;;;;;;;;;5016182;28;20229;-40
2022/04/16 04:24:46;;;;;;;5.50;4.60;;;;;;;;;;5016005;28;20664;-43
2022/04/16 04:27:13;;;;;;;6.27;4.53;;;;;;;;;;5013223;28;20632;-39
2022/04/16 04:29:41;;;;;;;5.83;4.43;;;;;;;;;;5015788;28;20271;-40
2022/04/16 04:32:08;;;;;;;5.33;4.13;;;;;;;;;;5015079;28;20241;-41
2022/04/16 04:34:36;;;;;;;6.77;5.33;;;;;;;;;;5016105;28;20208;-40
2022/04/16 04:37:03;;;;;;;8.07;5.47;;;;;;;;;;5015698;28;20198;-41
2022/04/16 04:39:30;;;;;;;6.37;5.70;;;;;;;;;;5011388;28;20706;-40
2022/04/16 04:41:57;;;;;;;5.27;3.57;;;;;;;;;;5016904;28;20647;-43
2022/04/16 04:44:24;;;;;;;7.37;4.90;;;;;;;;;;5017456;28;20229;-40
2022/04/16 04:46:53;;;;;;;5.00;3.87;;;;;;;;;;5014386;28;20292;-40
2022/04/16 04:49:20;;;;;;;5.07;3.77;;;;;;;;;;5016899;28;20697;-40
2022/04/16 04:51:47;;;;;;;5.93;4.60;;;;;;;;;;5015431;28;20221;-44
2022/04/16 04:54:15;;;;;;;6.30;5.33;;;;;;;;;;5016337;28;20264;-43
2022/04/16 04:56:42;;;;;;;5.63;4.10;;;;;;;;;;5014435;28;20225;-40
2022/04/16 04:59:09;;;;;;;7.30;5.37;;;;;;;;;;5014307;28;20660;-42
2022/04/16 05:01:37;;;;;;;8.53;5.17;;;;;;;;;;5014291;28;20763;-44
2022/04/16 05:04:04;;;;;;;4.77;3.63;;;;;;;;;;5014294;28;20225;-42
2022/04/16 05:06:31;;;;;;;8.53;6.27;;;;;;;;;;5014077;28;20249;-40
2022/04/16 05:08:58;;;;;;;6.10;5.07;;;;;;;;;;5012862;28;20237;-42
2022/04/16 05:11:25;;;;;;;5.80;4.13;;;;;;;;;;5014453;28;20225;-39
2022/04/16 05:13:52;;;;;;;6.73;4.90;;;;;;;;;;5016055;28;20229;-40
2022/04/16 05:16:20;;;;;;;7.20;4.47;;;;;;;;;;5015701;28;20349;-40
2022/04/16 05:18:47;;;;;;;7.17;5.37;;;;;;;;;;5013745;28;20251;-45
2022/04/16 05:21:14;;;;;;;8.47;6.27;;;;;;;;;;5013962;28;20256;-43
2022/04/16 05:23:42;;;;;;;7.50;5.70;;;;;;;;;;5014405;28;20319;-39
2022/04/16 05:26:10;;;;;;;4.93;4.13;;;;;;;;;;5015320;28;20233;-40
2022/04/16 05:28:38;;;;;;;3.77;3.10;;;;;;;;;;5015104;28;20291;-40
2022/04/16 05:31:06;;;;;;;5.77;4.50;;;;;;;;;;5015339;28;20304;-41
2022/04/16 05:36:19;;;;;;;6.47;4.37;;;;;;;;;;5014270;28;20326;-40
2022/04/16 05:38:46;;;;;;;5.67;3.63;;;;;;;;;;5012643;28;20226;-40
2022/04/16 05:41:13;;;;;;;9.07;4.80;;;;;;;;;;5014441;28;20260;-42
2022/04/16 05:43:41;;;;;;;6.43;4.50;;;;;;;;;;5014341;28;20271;-43
2022/04/16 05:46:08;;;;;;;5.80;3.87;;;;;;;;;;5013780;28;20287;-40
2022/04/16 05:48:36;;;;;;;6.80;5.00;;;;;;;;;;5011527;28;20235;-42
2022/04/16 05:51:04;;;;;;;4.57;3.37;;;;;;;;;;5013725;28;20279;-42
2022/04/16 05:53:31;;;;;;;5.40;3.77;;;;;;;;;;5029294;28;20320;-41
2022/04/16 05:56:17;;;;;;;4.90;3.67;;;;;;;;;;5005477;28;20333;-44
2022/04/16 05:58:45;;;;;;;6.10;4.83;;;;;;;;;;5013381;28;20648;-42
2022/04/16 06:01:13;;;;;;;5.83;4.37;;;;;;;;;;5013762;28;20302;-42
2022/04/16 06:03:40;;;;;;;5.00;3.80;;;;;;;;;;5013268;28;20232;-41
2022/04/16 06:06:08;;;;;;;5.83;4.70;;;;;;;;;;5013389;28;20225;-41
2022/04/16 06:08:36;;;;;;;4.90;3.83;;;;;;;;;;5012897;28;20229;-41
2022/04/16 06:11:04;;;;;;;8.97;5.07;;;;;;;;;;5013422;28;20232;-42
2022/04/16 06:13:32;;;;;;;5.27;4.00;;;;;;;;;;5011282;28;20657;-41
2022/04/16 06:16:01;;;;;;;6.60;5.07;;;;;;;;;;5011254;28;20221;-41
2022/04/16 06:18:28;;;;;;;6.57;4.90;;;;;;;;;;5010568;28;20213;-47
2022/04/16 06:20:57;;;;;;;4.90;4.03;;;;;;;;;;5012859;28;20291;-43
2022/04/16 06:23:24;;;;;;;4.90;4.37;;;;;;;;;;5012919;28;20224;-42
2022/04/16 06:25:51;;;;;;;5.70;3.97;;;;;;;;;;5007493;28;20225;-46
2022/04/16 06:28:19;;;;;;;5.93;4.53;;;;;;;;;;5013216;28;20217;-42
2022/04/16 06:30:46;;;;;;;6.13;4.60;;;;;;;;;;5012918;28;20262;-43
2022/04/16 06:33:13;;;;;;;5.27;4.47;;;;;;;;;;5012950;28;20231;-41
2022/04/16 06:35:42;;;;;;;5.23;3.97;;;;;;;;;;5012973;28;20221;-41
2022/04/16 06:38:09;;;;;;;5.00;4.37;;;;;;;;;;5012518;28;20240;-42
2022/04/16 06:40:36;;;;;;;6.73;5.23;;;;;;;;;;5011987;28;20252;-44
2022/04/16 06:43:03;;;;;;;5.53;4.43;;;;;;;;;;5009366;28;20233;-45
2022/04/16 06:45:32;;;;;;;5.63;4.13;;;;;;;;;;5022860;28;20297;-43
2022/04/16 06:47:59;;;;;;;5.47;4.30;;;;;;;;;;5012434;28;20225;-45
2022/04/16 06:50:26;;;;;;;5.30;4.20;;;;;;;;;;5012544;28;20221;-46
2022/04/16 06:52:56;;;;;;;4.43;4.00;;;;;;;;;;5011802;28;20248;-47
2022/04/16 06:55:23;;;;;;;4.43;3.40;;;;;;;;;;5012900;28;20227;-47
2022/04/16 06:57:50;;;;;;;3.63;3.00;;;;;;;;;;5012435;28;20574;-45
2022/04/16 07:00:17;;;;;;;5.67;3.90;;;;;;;;;;5012555;28;20746;-45
2022/04/16 07:02:44;;;;;;;3.83;3.20;;;;;;;;;;5012353;28;20244;-49
2022/04/16 07:05:12;;;;;;;5.33;4.20;;;;;;;;;;5007617;28;20217;-42
2022/04/16 07:07:39;;;;;;;3.57;3.20;;;;;;;;;;5011786;28;20275;-44
2022/04/16 07:10:07;;;;;;;2.13;1.90;;;;;;;;;;5015197;28;20245;-46
2022/04/16 07:12:34;;;;;;;2.50;2.30;;;;;;;;;;5016587;28;20225;-47
2022/04/16 07:15:01;;;;;;;2.53;1.87;;;;;;;;;;5016104;28;20308;-43
2022/04/16 07:17:29;;;;;;;3.17;2.43;;;;;;;;;;5016047;28;20233;-44
2022/04/16 07:19:56;;;;;;;3.47;2.50;;;;;;;;;;5016241;28;20516;-48
2022/04/16 07:22:23;;;;;;;3.13;2.67;;;;;;;;;;5011238;28;20318;-44
2022/04/16 07:24:51;;;;;;;2.20;2.00;;;;;;;;;;5014279;28;20315;-43
2022/04/16 07:27:18;;;;;;;1.77;1.40;;;;;;;;;;5016284;28;20558;-42
2022/04/16 07:29:46;;;;;;;3.03;2.27;;;;;;;;;;5016313;28;20229;-42
2022/04/16 07:32:13;;;;;;;3.10;2.30;;;;;;;;;;5016284;28;20221;-47
2022/04/16 07:34:40;;;;;;;2.90;2.20;;;;;;;;;;5015652;28;20671;-43
2022/04/16 07:37:09;;;;;;;5.80;2.47;;;;;;;;;;5015447;28;20221;-43
2022/04/16 07:39:36;;;;;;;2.20;1.70;;;;;;;;;;5015848;28;20311;-42
2022/04/16 07:42:03;;;;;;;2.00;1.63;;;;;;;;;;5015736;28;20244;-43
2022/04/16 07:44:30;;;;;;;2.40;1.80;;;;;;;;;;5016020;28;20233;-42
2022/04/16 07:46:57;;;;;;;2.20;1.93;;;;;;;;;;5016072;28;20562;-42
2022/04/16 07:49:24;;;;;;;2.73;1.73;;;;;;;;;;5017012;28;20288;-42
2022/04/16 07:51:51;;;;;;;1.73;1.43;;;;;;;;;;5016840;28;20519;-43
2022/04/16 07:54:18;;;;;;;2.43;1.97;;;;;;;;;;5024435;28;20216;-41
2022/04/16 07:56:46;;;;;;;1.57;1.47;;;;;;;;;;5036781;28;20228;-41
2022/04/16 07:59:13;;;;;;;3.90;2.10;;;;;;;;;;5036803;28;20224;-42
2022/04/16 08:01:40;;;;;;;2.67;1.60;;;;;;;;;;5036703;28;20241;-42
2022/04/16 08:04:07;;;;;;;2.27;2.03;;;;;;;;;;5036603;28;20290;-44
2022/04/16 08:06:34;;;;;;;1.80;1.70;;;;;;;;;;5035965;28;20228;-43
2022/04/16 08:09:01;;;;;;;1.77;1.67;;;;;;;;;;5036354;28;20240;-43
2022/04/16 08:11:33;;;;;;;3.90;1.63;;;;;;;;;;5036534;28;20229;-43
2022/04/16 08:14:00;;;;;;;1.97;1.77;;;;;;;;;;5036282;28;20267;-42
2022/04/16 08:16:27;;;;;;;2.57;2.37;;;;;;;;;;5036251;28;20225;-42
2022/04/16 08:18:55;;;;;;;2.23;1.90;;;;;;;;;;5036146;28;20237;-42
2022/04/16 08:21:22;;;;;;;2.80;2.30;;;;;;;;;;5034532;28;20523;-43
2022/04/16 08:23:57;;;;;;;4.37;2.50;;;;;;;;;;5021469;28;20311;-42
2022/04/16 08:26:24;;;;;;;4.40;2.40;;;;;;;;;;5036254;28;20682;-42
2022/04/16 08:28:51;;;;;;;2.53;2.00;;;;;;;;;;5035921;28;20232;-44
2022/04/16 08:31:18;;;;;;;4.33;2.17;;;;;;;;;;5036342;28;20229;-42
2022/04/16 08:33:46;;;;;;;3.87;2.27;;;;;;;;;;5035906;28;20679;-42
2022/04/16 08:36:13;;;;;;;1.97;1.80;;;;;;;;;;5035476;28;20742;-44
2022/04/16 08:38:40;;;;;;;4.03;2.23;;;;;;;;;;5035942;28;20229;-41
2022/04/16 08:41:09;;;;;;;2.50;2.27;;;;;;;;;;5036028;28;20224;-43
2022/04/16 08:43:37;;;;;;;3.67;2.60;;;;;;;;;;5035805;28;20323;-42
2022/04/16 08:46:05;;;;;;;5.13;3.33;;;;;;;;;;5051442;28;20533;-42
2022/04/16 08:48:38;;;;;;;2.53;2.20;;;;;;;;;;5035433;28;20228;-46
2022/04/16 08:51:06;;;;;;;2.50;2.30;;;;;;;;;;5024919;28;20299;-43
2022/04/16 08:53:33;;;;;;;2.63;2.40;;;;;;;;;;5017247;28;20672;-42
2022/04/16 08:56:00;;;;;;;4.30;2.43;;;;;;;;;;5035723;28;20259;-42
2022/04/16 08:58:30;;;;;;;2.57;2.00;;;;;;;;;;5035703;28;20335;-42
2022/04/16 09:00:58;;;;;;;2.63;2.27;;;;;;;;;;5020461;28;20235;-42
2022/04/16 09:03:32;;;;;;;2.40;2.17;;;;;;;;;;5015290;28;20236;-41
2022/04/16 09:06:00;;;;;;;3.73;2.47;;;;;;;;;;5015305;28;20544;-41
2022/04/16 09:08:29;;;;;;;3.57;2.67;;;;;;;;;;5015220;28;20279;-42
2022/04/16 09:11:06;;;;;;;2.43;2.23;;;;;;;;;;5015678;28;20235;-42
2022/04/16 09:13:34;;;;;;;3.13;2.77;;;;;;;;;;5015356;28;20229;-43
2022/04/16 09:16:07;;;;;;;2.60;1.97;;;;;;;;;;5015212;28;20564;-42
2022/04/16 09:18:52;;;;;;;2.57;2.37;;;;;;;;;;5015555;28;20244;-45
2022/04/16 09:21:23;;;;;;;1.97;1.80;;;;;;;;;;5015006;28;20235;-42
2022/04/16 09:23:53;;;;;;;2.13;1.83;;;;;;;;;;5018923;28;20224;-42
2022/04/16 09:26:28;;;;;;;3.07;2.00;;;;;;;;;;5050605;28;20678;-41
2022/04/16 09:28:55;;;;;;;3.37;2.33;;;;;;;;;;5050199;28;20238;-43
2022/04/16 09:31:27;;;;;;;2.00;1.80;;;;;;;;;;5034634;28;20224;-46
2022/04/16 09:33:55;;;;;;;2.10;1.83;;;;;;;;;;5034752;28;20224;-42
2022/04/16 09:36:24;;;;;;;2.33;1.80;;;;;;;;;;5029734;28;20221;-45
2022/04/16 09:38:59;;;;;;;2.00;1.80;;;;;;;;;;5013366;28;20680;-42
2022/04/16 09:41:31;;;;;;;5.27;2.10;;;;;;;;;;5014634;28;20558;-44
2022/04/16 09:43:59;;;;;;;2.50;2.10;;;;;;;;;;5014950;28;20256;-41
2022/04/16 09:46:28;;;;;;;2.50;1.90;;;;;;;;;;5014737;28;20225;-44
2022/04/16 09:49:02;;;;;;;2.40;1.90;;;;;;;;;;5015029;28;20236;-41
2022/04/16 09:51:35;;;;;;;5.33;2.60;;;;;;;;;;5014111;28;20232;-42
2022/04/16 09:54:04;;;;;;;2.97;2.10;;;;;;;;;;5020447;28;20225;-42
2022/04/16 09:56:35;;;;;;;2.03;1.50;;;;;;;;;;5034534;28;20229;-42
2022/04/16 09:59:04;;;;;;;2.10;1.57;;;;;;;;;;5034994;28;20240;-43
2022/04/16 10:01:32;;;;;;;3.00;1.93;;;;;;;;;;5050033;28;20240;-43
2022/04/16 10:04:00;;;;;;;2.23;1.73;;;;;;;;;;4995097;28;20237;-42
2022/04/16 10:06:31;;;;;;;2.03;1.80;;;;;;;;;;5002583;28;20320;-43
2022/04/16 10:09:00;;;;;;;2.40;1.50;;;;;;;;;;5014057;28;20534;-42
2022/04/16 10:14:28;;;;;;;2.60;1.53;;;;;;;;;;5014211;28;20265;-42
2022/04/16 10:17:07;;;;;;;2.90;1.70;;;;;;;;;;5029696;28;20236;-42
2022/04/16 10:19:47;;;;;;;1.53;1.27;;;;;;;;;;5029787;28;20228;-41
2022/04/16 10:22:25;;;;;;;2.57;1.77;;;;;;;;;;5029547;28;20229;-42
2022/04/16 10:25:02;;;;;;;1.47;1.30;;;;;;;;;;5026376;28;20286;-42
2022/04/16 10:27:30;;;;;;;3.43;2.10;;;;;;;;;;5026695;28;20216;-40
2022/04/16 10:30:00;;;;;;;2.30;2.00;;;;;;;;;;5014463;28;20249;-40
2022/04/16 10:32:37;;;;;;;2.57;2.00;;;;;;;;;;5013141;28;20236;-42
2022/04/16 10:35:06;;;;;;;2.30;1.43;;;;;;;;;;5013538;28;20225;-40
2022/04/16 10:37:41;;;;;;;2.00;1.80;;;;;;;;;;5013229;28;20229;-41
2022/04/16 10:40:22;;;;;;;2.33;2.00;;;;;;;;;;5013453;28;20220;-41
2022/04/16 10:42:51;;;;;;;2.93;1.87;;;;;;;;;;5012859;28;20298;-41
2022/04/16 10:45:21;;;;;;;2.57;1.63;;;;;;;;;;5012913;28;20253;-43
2022/04/16 10:47:50;;;;;;;2.20;1.80;;;;;;;;;;5009789;28;20232;-45
2022/04/16 10:50:19;;;;;;;2.37;2.00;;;;;;;;;;5012688;28;20217;-41
2022/04/16 10:53:01;;;;;;;2.53;1.57;;;;;;;;;;5012870;28;20225;-46
2022/04/16 10:55:32;;;;;;;2.40;2.17;;;;;;;;;;5012968;28;20221;-46
2022/04/16 10:58:02;;;;;;;2.47;2.00;;;;;;;;;;5013609;28;20232;-41
2022/04/16 11:00:40;;;;;;;1.40;1.30;;;;;;;;;;5013413;28;20280;-43
2022/04/16 11:03:10;;;;;;;1.77;1.67;;;;;;;;;;5013539;28;20239;-41
2022/04/16 11:05:37;;;;;;;2.47;1.90;;;;;;;;;;5013444;28;20221;-41
2022/04/16 11:08:05;;;;;;;3.37;2.40;;;;;;;;;;5013961;28;20231;-40
2022/04/16 11:10:33;;;;;;;3.03;2.27;;;;;;;;;;5013663;28;20252;-42
2022/04/16 11:13:03;;;;;;;2.63;1.90;;;;;;;;;;5013609;28;20251;-41
2022/04/16 11:15:30;;;;;;;1.97;1.67;;;;;;;;;;5012649;28;20671;-40
2022/04/16 11:18:02;;;;;;;2.63;1.90;;;;;;;;;;5013547;28;20290;-43
2022/04/16 11:20:29;;;;;;;2.57;1.97;;;;;;;;;;5013129;28;20224;-42
2022/04/16 11:22:57;;;;;;;2.53;2.10;;;;;;;;;;5013461;28;20256;-42
2022/04/16 11:25:25;;;;;;;2.90;1.80;;;;;;;;;;5019174;28;20695;-43
2022/04/16 11:36:12;;;;;;;3.07;2.13;;;;;;;;;;5013396;28;20268;-41
2022/04/16 11:38:41;;;;;;;2.80;2.33;;;;;;;;;;5013428;28;20240;-41
2022/04/16 11:41:10;;;;;;;2.23;2.00;;;;;;;;;;5013109;28;20233;-40
2022/04/16 11:43:46;;;;;;;3.40;2.42;;;;;;;;;;5013057;28;20249;-41
2022/04/16 11:46:14;;;;;;;2.73;2.13;;;;;;;;;;5008961;28;20316;-41
2022/04/16 11:48:44;;;;;;;3.67;1.83;;;;;;;;;;5011853;28;20225;-51
2022/04/16 11:51:12;;;;;;;4.27;1.67;;;;;;;;;;5011246;28;20291;-40
2022/04/16 11:53:47;;;;;;;2.78;1.95;;;;;;;;;;5014404;28;20236;-41
2022/04/16 11:56:27;;;;;;;3.83;2.00;;;;;;;;;;5015676;28;20240;-41
2022/04/16 11:58:54;;;;;;;2.50;1.83;;;;;;;;;;5016962;28;20229;-43
2022/04/16 12:01:22;;;;;;;3.55;2.33;;;;;;;;;;5014077;28;20222;-48
2022/04/16 12:03:52;;;;;;;3.43;2.20;;;;;;;;;;5016268;28;20234;-42
2022/04/16 12:06:19;;;;;;;3.35;2.22;;;;;;;;;;5016734;28;20224;-41
2022/04/16 12:08:47;;;;;;;2.87;1.70;;;;;;;;;;5016463;28;21812;-42
2022/04/16 12:11:14;;;;;;;2.97;2.50;;;;;;;;;;5016611;28;20222;-42
2022/04/16 12:13:42;;;;;;;2.95;2.50;;;;;;;;;;5009296;28;20236;-42
2022/04/16 12:16:13;;;;;;;3.97;2.97;;;;;;;;;;5015800;28;20228;-42
2022/04/16 12:18:42;;;;;;;2.75;2.13;;;;;;;;;;4996917;28;20237;-41
2022/04/16 12:21:17;;;;;;;2.57;2.23;;;;;;;;;;5010059;28;20229;-42
2022/04/16 12:23:45;;;;;;;2.63;2.10;;;;;;;;;;5015846;28;20247;-42
2022/04/16 12:26:14;;;;;;;3.60;2.40;;;;;;;;;;5015598;28;20702;-42
2022/04/16 12:28:47;;;;;;;2.40;2.20;;;;;;;;;;5015467;28;20229;-42
2022/04/16 12:31:29;;;;;;;2.13;1.70;;;;;;;;;;5016282;28;20251;-41
2022/04/16 12:33:57;;;;;;;3.07;2.30;;;;;;;;;;5015555;28;20213;-44
2022/04/16 12:36:25;;;;;;;3.37;2.37;;;;;;;;;;5013833;28;20229;-41
2022/04/16 12:38:54;;;;;;;2.13;1.97;;;;;;;;;;5015940;28;20579;-43
2022/04/16 12:41:21;;;;;;;2.93;2.50;;;;;;;;;;5014729;28;20264;-49
2022/04/16 12:43:48;;;;;;;2.50;2.30;;;;;;;;;;5013900;28;20236;-43
2022/04/16 12:46:15;;;;;;;3.40;2.43;;;;;;;;;;5015063;28;20287;-42
2022/04/16 12:48:42;;;;;;;3.93;2.00;;;;;;;;;;5014980;28;20213;-42
2022/04/16 12:51:10;;;;;;;3.90;2.50;;;;;;;;;;5015151;28;20217;-42
2022/04/16 12:53:37;;;;;;;3.53;2.63;;;;;;;;;;5030597;28;20249;-45
2022/04/16 12:56:04;;;;;;;2.87;2.17;;;;;;;;;;5015733;28;20230;-43
2022/04/16 12:58:31;;;;;;;3.80;2.73;;;;;;;;;;5015752;28;20248;-44
2022/04/16 13:00:59;;;;;;;5.17;2.70;;;;;;;;;;5015240;28;20225;-41
2022/04/16 13:03:26;;;;;;;2.97;2.33;;;;;;;;;;5014213;28;20225;-44
2022/04/16 13:05:53;;;;;;;2.70;2.13;;;;;;;;;;5015180;28;20233;-44
2022/04/16 13:08:20;;;;;;;2.30;2.10;;;;;;;;;;5015269;28;20252;-40
2022/04/16 13:10:51;;;;;;;4.33;2.50;;;;;;;;;;5016052;28;20241;-42
2022/04/16 13:13:18;;;;;;;5.57;2.42;;;;;;;;;;5030785;28;20256;-41
2022/04/16 13:15:46;;;;;;;2.10;1.65;;;;;;;;;;5014609;28;20236;-50
2022/04/16 13:18:13;;;;;;;2.47;2.28;;;;;;;;;;5014636;28;20239;-43
2022/04/16 13:20:41;;;;;;;2.75;2.10;;;;;;;;;;5015400;28;20224;-43
2022/04/16 13:23:08;;;;;;;2.50;1.90;;;;;;;;;;5014146;28;20280;-44
2022/04/16 13:25:35;;;;;;;4.03;3.03;;;;;;;;;;5016841;28;20237;-42
2022/04/16 13:28:02;;;;;;;3.40;2.45;;;;;;;;;;5013944;28;20673;-43
2022/04/16 13:30:30;;;;;;;3.27;2.37;;;;;;;;;;5013544;28;20228;-42
2022/04/16 13:32:57;;;;;;;3.90;2.22;;;;;;;;;;5011386;28;20221;-42
2022/04/16 13:35:24;;;;;;;3.03;2.60;;;;;;;;;;5014150;28;20222;-47
2022/04/16 13:37:51;;;;;;;2.40;2.00;;;;;;;;;;5010993;28;20257;-43
2022/04/16 13:43:04;;;;;;;2.67;2.13;;;;;;;;;;5013469;28;20706;-47
2022/04/16 13:45:31;;;;;;;2.80;2.00;;;;;;;;;;5010850;28;20234;-42
2022/04/16 13:47:58;;;;;;;3.47;2.63;;;;;;;;;;5014070;28;20233;-41
2022/04/16 13:50:26;;;;;;;3.47;2.63;;;;;;;;;;5014667;28;20258;-40
2022/04/16 13:52:52;;;;;;;4.53;2.70;;;;;;;;;;5029581;28;20768;-44
2022/04/16 13:55:19;;;;;;;2.90;2.57;;;;;;;;;;5030671;28;20234;-40
2022/04/16 13:57:47;;;;;;;3.73;2.60;;;;;;;;;;5028994;28;20229;-41
2022/04/16 14:00:14;;;;;;;3.13;2.60;;;;;;;;;;5013212;28;20217;-46
2022/04/16 14:02:42;;;;;;;2.87;2.40;;;;;;;;;;5010238;28;20244;-41
2022/04/16 14:07:56;;;;;;;2.75;2.22;;;;;;;;;;5012772;28;20224;-45
2022/04/16 14:10:23;;;;;;;4.37;2.83;;;;;;;;;;5013348;28;20233;-43
2022/04/16 14:12:50;;;;;;;3.37;2.43;;;;;;;;;;5013261;28;20236;-42
2022/04/16 14:15:17;;;;;;;5.60;2.20;;;;;;;;;;5028830;28;20589;-43
2022/04/16 14:17:44;;;;;;;3.47;2.73;;;;;;;;;;5012220;28;20228;-46
2022/04/16 14:20:11;;;;;;;3.80;2.20;;;;;;;;;;5012752;28;20221;-44
2022/04/16 14:22:39;;;;;;;4.57;2.93;;;;;;;;;;5013004;28;20275;-44
2022/04/16 14:25:06;;;;;;;4.20;2.50;;;;;;;;;;5014628;28;20676;-41
2022/04/16 14:27:33;;;;;;;4.57;3.30;;;;;;;;;;5012903;28;20236;-42
2022/04/16 14:30:00;;;;;;;4.77;2.77;;;;;;;;;;5012187;28;20241;-41
2022/04/16 14:32:28;;;;;;;4.87;2.73;;;;;;;;;;5012296;28;20699;-43
2022/04/16 14:34:55;;;;;;;4.03;2.67;;;;;;;;;;5012846;28;20389;-42
2022/04/16 14:37:22;;;;;;;3.50;2.80;;;;;;;;;;5010612;28;20213;-45
2022/04/16 14:39:49;;;;;;;4.00;2.73;;;;;;;;;;5007552;28;20295;-43
2022/04/16 14:42:16;;;;;;;6.33;2.73;;;;;;;;;;5013905;28;20229;-42
2022/04/16 14:44:47;;;;;;;6.90;2.20;;;;;;;;;;5013749;28;20264;-41
2022/04/16 14:47:14;;;;;;;4.13;2.70;;;;;;;;;;5013858;28;20225;-41
2022/04/16 14:49:41;;;;;;;4.22;2.58;;;;;;;;;;5013428;28;20233;-42
2022/04/16 14:52:08;;;;;;;2.67;2.10;;;;;;;;;;5013885;28;20235;-42
2022/04/16 14:54:35;;;;;;;3.50;2.30;;;;;;;;;;5023830;28;20675;-41
2022/04/16 14:57:23;;;;;;;3.20;2.40;;;;;;;;;;5034097;28;20220;-43
2022/04/16 14:59:50;;;;;;;3.60;2.30;;;;;;;;;;5019148;28;20229;-42
2022/04/16 15:02:17;;;;;;;3.33;2.60;;;;;;;;;;5012003;28;20287;-42
2022/04/16 15:04:47;;;;;;;3.43;2.43;;;;;;;;;;5012606;28;20228;-43
2022/04/16 15:07:15;;;;;;;3.50;2.43;;;;;;;;;;5011820;28;20278;-43
2022/04/16 15:09:42;;;;;;;3.67;2.37;;;;;;;;;;5009621;28;20233;-43
2022/04/16 15:12:10;;;;;;;4.83;2.50;;;;;;;;;;5013529;28;20617;-42
2022/04/16 15:14:37;;;;;;;2.63;2.00;;;;;;;;;;5009341;28;20225;-45
2022/04/16 15:17:04;;;;;;;3.37;2.50;;;;;;;;;;5013566;28;20241;-42
2022/04/16 15:19:31;;;;;;;2.43;2.03;;;;;;;;;;5013799;28;20257;-41
2022/04/16 15:21:59;;;;;;;3.03;2.17;;;;;;;;;;5013878;28;20291;-42